La Jara, New Mexico
Current Conditions -  °F | °C
As of 5:15 AM on Saturday 25 Oct 2014 (Local Time) from KLAM Reporting Station
Clear Clear  
Wind Chill: 52°   Ceiling: Unl
Heat Index: 52°   Visibility: 10mi
Dew Point: 19°   Wind: 0mph
Humidity: 28%   Direction: NA
Pressure: 30.38"   Gusts: NA
Location:  36.09°N, 106.97°W
Report Text: KLAM 251115Z AUTO 00000KT 10SM CLR 11/M07 A3038 RMK AO2 T01091070
Loading
Personal Weather Stations






























Interactive Weather Map
Tropical Storm Tracking
New forecast layout! Learn more

10-Day Weather Forecast

Advertisements
Track Severe Weather on mobile